sensor_id;sensor_type;location;lat;lon;timestamp;P1;durP1;ratioP1;P2;durP2;ratioP2
55114;SDS011;41010;53.252;5.786;2022-10-16T00:00:38;9.35;;;1.70;;
55114;SDS011;41010;53.252;5.786;2022-10-16T00:03:05;5.30;;;1.10;;
55114;SDS011;41010;53.252;5.786;2022-10-16T00:05:37;6.93;;;1.33;;
55114;SDS011;41010;53.252;5.786;2022-10-16T00:08:05;7.57;;;1.38;;
55114;SDS011;41010;53.252;5.786;2022-10-16T00:10:32;8.82;;;1.98;;
55114;SDS011;41010;53.252;5.786;2022-10-16T00:13:00;8.88;;;1.52;;
55114;SDS011;41010;53.252;5.786;2022-10-16T00:15:27;7.10;;;1.50;;
55114;SDS011;41010;53.252;5.786;2022-10-16T00:17:54;11.70;;;1.98;;
55114;SDS011;41010;53.252;5.786;2022-10-16T00:20:21;14.52;;;1.58;;
55114;SDS011;41010;53.252;5.786;2022-10-16T00:22:50;12.73;;;1.83;;
55114;SDS011;41010;53.252;5.786;2022-10-16T00:25:17;10.27;;;1.80;;
55114;SDS011;41010;53.252;5.786;2022-10-16T00:27:44;10.65;;;1.52;;
55114;SDS011;41010;53.252;5.786;2022-10-16T00:30:12;10.75;;;1.50;;
55114;SDS011;41010;53.252;5.786;2022-10-16T00:32:39;9.77;;;1.80;;
55114;SDS011;41010;53.252;5.786;2022-10-16T00:35:06;9.75;;;1.52;;
55114;SDS011;41010;53.252;5.786;2022-10-16T00:37:33;6.20;;;1.40;;
55114;SDS011;41010;53.252;5.786;2022-10-16T00:40:02;10.48;;;1.60;;
55114;SDS011;41010;53.252;5.786;2022-10-16T00:42:29;10.85;;;1.58;;
55114;SDS011;41010;53.252;5.786;2022-10-16T00:44:57;9.73;;;1.65;;
55114;SDS011;41010;53.252;5.786;2022-10-16T00:47:26;13.68;;;1.80;;
55114;SDS011;41010;53.252;5.786;2022-10-16T00:49:56;10.45;;;1.50;;
55114;SDS011;41010;53.252;5.786;2022-10-16T00:52:26;8.10;;;1.52;;
55114;SDS011;41010;53.252;5.786;2022-10-16T00:54:53;6.63;;;1.42;;
55114;SDS011;41010;53.252;5.786;2022-10-16T00:57:22;6.35;;;1.20;;
55114;SDS011;41010;53.252;5.786;2022-10-16T00:59:49;8.98;;;1.70;;
55114;SDS011;41010;53.252;5.786;2022-10-16T01:02:17;7.22;;;1.30;;
55114;SDS011;41010;53.252;5.786;2022-10-16T01:04:46;8.35;;;1.48;;
55114;SDS011;41010;53.252;5.786;2022-10-16T01:07:16;8.77;;;2.20;;
55114;SDS011;41010;53.252;5.786;2022-10-16T01:09:51;7.07;;;1.00;;
55114;SDS011;41010;53.252;5.786;2022-10-16T01:12:26;6.95;;;1.80;;
55114;SDS011;41010;53.252;5.786;2022-10-16T01:14:57;7.65;;;1.40;;
55114;SDS011;41010;53.252;5.786;2022-10-16T01:17:27;7.00;;;1.50;;
55114;SDS011;41010;53.252;5.786;2022-10-16T01:22:43;4.13;;;0.88;;
55114;SDS011;41010;53.252;5.786;2022-10-16T01:25:16;5.43;;;1.10;;
55114;SDS011;41010;53.252;5.786;2022-10-16T01:27:46;5.95;;;1.40;;
55114;SDS011;41010;53.252;5.786;2022-10-16T01:30:16;4.72;;;1.20;;
55114;SDS011;41010;53.252;5.786;2022-10-16T01:32:45;11.48;;;1.40;;
55114;SDS011;41010;53.252;5.786;2022-10-16T01:35:14;8.32;;;1.40;;
55114;SDS011;41010;53.252;5.786;2022-10-16T01:37:46;9.68;;;1.25;;
55114;SDS011;41010;53.252;5.786;2022-10-16T01:40:16;9.25;;;1.85;;
55114;SDS011;41010;53.252;5.786;2022-10-16T01:42:45;9.15;;;1.20;;
55114;SDS011;41010;53.252;5.786;2022-10-16T01:45:14;6.72;;;1.23;;
55114;SDS011;41010;53.252;5.786;2022-10-16T01:47:43;5.78;;;1.10;;
55114;SDS011;41010;53.252;5.786;2022-10-16T01:50:10;5.57;;;1.05;;
55114;SDS011;41010;53.252;5.786;2022-10-16T01:52:40;4.07;;;0.95;;
55114;SDS011;41010;53.252;5.786;2022-10-16T01:55:08;8.88;;;1.63;;
55114;SDS011;41010;53.252;5.786;2022-10-16T01:57:38;8.85;;;1.17;;
55114;SDS011;41010;53.252;5.786;2022-10-16T02:00:07;4.57;;;0.90;;
55114;SDS011;41010;53.252;5.786;2022-10-16T02:02:37;3.42;;;0.85;;
55114;SDS011;41010;53.252;5.786;2022-10-16T02:05:08;5.88;;;0.90;;
55114;SDS011;41010;53.252;5.786;2022-10-16T02:07:37;7.78;;;1.45;;
55114;SDS011;41010;53.252;5.786;2022-10-16T02:10:06;9.27;;;1.30;;
55114;SDS011;41010;53.252;5.786;2022-10-16T02:12:34;7.72;;;1.40;;
55114;SDS011;41010;53.252;5.786;2022-10-16T02:15:02;11.50;;;1.40;;
55114;SDS011;41010;53.252;5.786;2022-10-16T02:17:29;6.55;;;1.45;;
55114;SDS011;41010;53.252;5.786;2022-10-16T02:19:58;14.32;;;1.83;;
55114;SDS011;41010;53.252;5.786;2022-10-16T02:22:27;6.35;;;1.67;;
55114;SDS011;41010;53.252;5.786;2022-10-16T02:24:56;8.73;;;1.80;;
55114;SDS011;41010;53.252;5.786;2022-10-16T02:27:24;5.57;;;1.50;;
55114;SDS011;41010;53.252;5.786;2022-10-16T02:29:54;5.65;;;1.27;;
55114;SDS011;41010;53.252;5.786;2022-10-16T02:32:24;10.80;;;1.20;;
55114;SDS011;41010;53.252;5.786;2022-10-16T02:34:52;10.80;;;1.48;;
55114;SDS011;41010;53.252;5.786;2022-10-16T02:37:21;6.80;;;1.73;;
55114;SDS011;41010;53.252;5.786;2022-10-16T02:39:48;9.77;;;2.42;;
55114;SDS011;41010;53.252;5.786;2022-10-16T02:42:17;16.13;;;2.35;;
55114;SDS011;41010;53.252;5.786;2022-10-16T02:44:44;8.35;;;2.72;;
55114;SDS011;41010;53.252;5.786;2022-10-16T02:47:12;11.68;;;3.15;;
55114;SDS011;41010;53.252;5.786;2022-10-16T02:49:39;10.80;;;2.88;;
55114;SDS011;41010;53.252;5.786;2022-10-16T02:52:06;13.38;;;3.63;;
55114;SDS011;41010;53.252;5.786;2022-10-16T02:54:35;5.75;;;2.55;;
55114;SDS011;41010;53.252;5.786;2022-10-16T02:57:02;16.83;;;2.78;;
55114;SDS011;41010;53.252;5.786;2022-10-16T02:59:29;10.00;;;2.63;;
55114;SDS011;41010;53.252;5.786;2022-10-16T03:01:56;4.95;;;1.73;;
55114;SDS011;41010;53.252;5.786;2022-10-16T03:04:23;6.60;;;2.00;;
55114;SDS011;41010;53.252;5.786;2022-10-16T03:06:51;6.82;;;2.00;;
55114;SDS011;41010;53.252;5.786;2022-10-16T03:09:18;6.90;;;2.10;;
55114;SDS011;41010;53.252;5.786;2022-10-16T03:11:46;9.40;;;2.35;;
55114;SDS011;41010;53.252;5.786;2022-10-16T03:14:14;6.03;;;1.92;;
55114;SDS011;41010;53.252;5.786;2022-10-16T03:16:41;7.65;;;2.50;;
55114;SDS011;41010;53.252;5.786;2022-10-16T03:19:08;6.70;;;1.98;;
55114;SDS011;41010;53.252;5.786;2022-10-16T03:21:35;9.30;;;2.10;;
55114;SDS011;41010;53.252;5.786;2022-10-16T03:24:03;6.85;;;3.05;;
55114;SDS011;41010;53.252;5.786;2022-10-16T03:26:30;10.02;;;2.45;;
55114;SDS011;41010;53.252;5.786;2022-10-16T03:28:59;8.32;;;2.65;;
55114;SDS011;41010;53.252;5.786;2022-10-16T03:31:27;9.60;;;2.72;;
55114;SDS011;41010;53.252;5.786;2022-10-16T03:33:54;8.60;;;2.08;;
55114;SDS011;41010;53.252;5.786;2022-10-16T03:36:22;8.48;;;2.42;;
55114;SDS011;41010;53.252;5.786;2022-10-16T03:38:49;13.68;;;2.60;;
55114;SDS011;41010;53.252;5.786;2022-10-16T03:41:16;7.78;;;1.95;;
55114;SDS011;41010;53.252;5.786;2022-10-16T03:43:44;6.30;;;2.10;;
55114;SDS011;41010;53.252;5.786;2022-10-16T03:46:12;6.30;;;1.95;;
55114;SDS011;41010;53.252;5.786;2022-10-16T03:48:39;8.77;;;2.00;;
55114;SDS011;41010;53.252;5.786;2022-10-16T03:51:07;8.57;;;2.45;;
55114;SDS011;41010;53.252;5.786;2022-10-16T03:53:34;4.90;;;2.00;;
55114;SDS011;41010;53.252;5.786;2022-10-16T03:56:01;6.18;;;2.05;;
55114;SDS011;41010;53.252;5.786;2022-10-16T03:58:28;8.70;;;2.22;;
55114;SDS011;41010;53.252;5.786;2022-10-16T04:00:55;4.97;;;1.80;;
55114;SDS011;41010;53.252;5.786;2022-10-16T04:03:24;5.35;;;1.80;;
55114;SDS011;41010;53.252;5.786;2022-10-16T04:05:51;6.03;;;1.73;;
55114;SDS011;41010;53.252;5.786;2022-10-16T04:08:18;9.52;;;1.45;;
55114;SDS011;41010;53.252;5.786;2022-10-16T04:10:46;9.25;;;1.85;;
55114;SDS011;41010;53.252;5.786;2022-10-16T04:13:13;8.50;;;1.77;;
55114;SDS011;41010;53.252;5.786;2022-10-16T04:15:40;7.78;;;1.80;;
55114;SDS011;41010;53.252;5.786;2022-10-16T04:18:07;9.60;;;1.50;;
55114;SDS011;41010;53.252;5.786;2022-10-16T04:20:36;13.27;;;1.48;;
55114;SDS011;41010;53.252;5.786;2022-10-16T04:23:03;7.43;;;1.80;;
55114;SDS011;41010;53.252;5.786;2022-10-16T04:25:31;6.30;;;1.90;;
55114;SDS011;41010;53.252;5.786;2022-10-16T04:27:58;5.35;;;1.58;;
55114;SDS011;41010;53.252;5.786;2022-10-16T04:30:25;7.13;;;1.95;;
55114;SDS011;41010;53.252;5.786;2022-10-16T04:32:52;5.32;;;1.80;;
55114;SDS011;41010;53.252;5.786;2022-10-16T04:35:20;9.10;;;1.98;;
55114;SDS011;41010;53.252;5.786;2022-10-16T04:37:49;7.05;;;2.08;;
55114;SDS011;41010;53.252;5.786;2022-10-16T04:40:16;11.63;;;2.20;;
55114;SDS011;41010;53.252;5.786;2022-10-16T04:42:44;7.68;;;2.10;;
55114;SDS011;41010;53.252;5.786;2022-10-16T04:45:11;6.28;;;1.65;;
55114;SDS011;41010;53.252;5.786;2022-10-16T04:47:38;7.03;;;1.60;;
55114;SDS011;41010;53.252;5.786;2022-10-16T04:50:05;6.10;;;1.75;;
55114;SDS011;41010;53.252;5.786;2022-10-16T04:52:33;7.90;;;1.63;;
55114;SDS011;41010;53.252;5.786;2022-10-16T04:55:02;6.45;;;1.45;;
55114;SDS011;41010;53.252;5.786;2022-10-16T04:57:29;6.15;;;1.30;;
55114;SDS011;41010;53.252;5.786;2022-10-16T04:59:58;9.00;;;1.65;;
55114;SDS011;41010;53.252;5.786;2022-10-16T05:02:25;7.78;;;1.40;;
55114;SDS011;41010;53.252;5.786;2022-10-16T05:04:53;6.55;;;1.30;;
55114;SDS011;41010;53.252;5.786;2022-10-16T05:07:20;10.25;;;2.50;;
55114;SDS011;41010;53.252;5.786;2022-10-16T05:09:47;4.70;;;1.10;;
55114;SDS011;41010;53.252;5.786;2022-10-16T05:12:16;6.95;;;1.50;;
55114;SDS011;41010;53.252;5.786;2022-10-16T05:14:43;8.00;;;1.75;;
55114;SDS011;41010;53.252;5.786;2022-10-16T05:17:11;7.80;;;1.15;;
55114;SDS011;41010;53.252;5.786;2022-10-16T05:19:38;9.73;;;1.30;;
55114;SDS011;41010;53.252;5.786;2022-10-16T05:22:05;7.55;;;1.25;;
55114;SDS011;41010;53.252;5.786;2022-10-16T05:24:32;5.13;;;1.30;;
55114;SDS011;41010;53.252;5.786;2022-10-16T05:26:59;6.10;;;1.33;;
55114;SDS011;41010;53.252;5.786;2022-10-16T05:29:28;4.25;;;1.08;;
55114;SDS011;41010;53.252;5.786;2022-10-16T05:31:55;4.35;;;1.30;;
55114;SDS011;41010;53.252;5.786;2022-10-16T05:34:23;8.80;;;1.50;;
55114;SDS011;41010;53.252;5.786;2022-10-16T05:36:50;5.60;;;1.70;;
55114;SDS011;41010;53.252;5.786;2022-10-16T05:39:17;5.63;;;2.00;;
55114;SDS011;41010;53.252;5.786;2022-10-16T05:41:44;6.30;;;2.28;;
55114;SDS011;41010;53.252;5.786;2022-10-16T05:44:12;12.45;;;2.67;;
55114;SDS011;41010;53.252;5.786;2022-10-16T05:46:40;6.55;;;2.90;;
55114;SDS011;41010;53.252;5.786;2022-10-16T05:49:07;13.05;;;3.33;;
55114;SDS011;41010;53.252;5.786;2022-10-16T05:51:34;6.28;;;2.83;;
55114;SDS011;41010;53.252;5.786;2022-10-16T05:54:02;10.05;;;3.20;;
55114;SDS011;41010;53.252;5.786;2022-10-16T05:56:29;5.78;;;2.90;;
55114;SDS011;41010;53.252;5.786;2022-10-16T05:58:56;9.80;;;3.42;;
55114;SDS011;41010;53.252;5.786;2022-10-16T06:01:24;6.88;;;3.20;;
55114;SDS011;41010;53.252;5.786;2022-10-16T06:03:52;9.55;;;3.22;;
55114;SDS011;41010;53.252;5.786;2022-10-16T06:06:20;8.10;;;3.17;;
55114;SDS011;41010;53.252;5.786;2022-10-16T06:08:48;7.40;;;2.55;;
55114;SDS011;41010;53.252;5.786;2022-10-16T06:11:16;11.65;;;2.85;;
55114;SDS011;41010;53.252;5.786;2022-10-16T06:13:43;13.10;;;3.25;;
55114;SDS011;41010;53.252;5.786;2022-10-16T06:16:12;9.07;;;2.85;;
55114;SDS011;41010;53.252;5.786;2022-10-16T06:18:39;12.45;;;2.90;;
55114;SDS011;41010;53.252;5.786;2022-10-16T06:21:08;9.68;;;3.08;;
55114;SDS011;41010;53.252;5.786;2022-10-16T06:23:36;8.77;;;2.45;;
55114;SDS011;41010;53.252;5.786;2022-10-16T06:26:06;10.85;;;3.05;;
55114;SDS011;41010;53.252;5.786;2022-10-16T06:28:33;5.97;;;2.42;;
55114;SDS011;41010;53.252;5.786;2022-10-16T06:31:01;14.88;;;2.90;;
55114;SDS011;41010;53.252;5.786;2022-10-16T06:33:28;13.40;;;2.83;;
55114;SDS011;41010;53.252;5.786;2022-10-16T06:35:59;9.50;;;2.65;;
55114;SDS011;41010;53.252;5.786;2022-10-16T06:38:28;7.93;;;2.42;;
55114;SDS011;41010;53.252;5.786;2022-10-16T06:40:56;9.10;;;2.75;;
55114;SDS011;41010;53.252;5.786;2022-10-16T06:43:23;13.00;;;2.60;;
55114;SDS011;41010;53.252;5.786;2022-10-16T06:45:51;8.90;;;2.10;;
55114;SDS011;41010;53.252;5.786;2022-10-16T06:48:18;11.07;;;2.30;;
55114;SDS011;41010;53.252;5.786;2022-10-16T06:50:54;9.25;;;2.10;;
55114;SDS011;41010;53.252;5.786;2022-10-16T06:53:21;9.35;;;1.77;;
55114;SDS011;41010;53.252;5.786;2022-10-16T06:55:50;6.88;;;1.98;;
55114;SDS011;41010;53.252;5.786;2022-10-16T06:58:17;7.85;;;1.70;;
55114;SDS011;41010;53.252;5.786;2022-10-16T07:00:45;7.18;;;1.77;;
55114;SDS011;41010;53.252;5.786;2022-10-16T07:03:12;9.52;;;1.98;;
55114;SDS011;41010;53.252;5.786;2022-10-16T07:05:39;10.95;;;1.80;;
55114;SDS011;41010;53.252;5.786;2022-10-16T07:08:07;10.02;;;1.83;;
55114;SDS011;41010;53.252;5.786;2022-10-16T07:10:35;7.75;;;1.60;;
55114;SDS011;41010;53.252;5.786;2022-10-16T07:13:03;10.18;;;1.95;;
55114;SDS011;41010;53.252;5.786;2022-10-16T07:15:32;5.38;;;1.77;;
55114;SDS011;41010;53.252;5.786;2022-10-16T07:18:00;8.35;;;2.08;;
55114;SDS011;41010;53.252;5.786;2022-10-16T07:20:27;6.10;;;2.08;;
55114;SDS011;41010;53.252;5.786;2022-10-16T07:22:54;10.80;;;2.33;;
55114;SDS011;41010;53.252;5.786;2022-10-16T07:25:21;8.25;;;1.75;;
55114;SDS011;41010;53.252;5.786;2022-10-16T07:27:49;6.65;;;1.80;;
55114;SDS011;41010;53.252;5.786;2022-10-16T07:30:17;8.60;;;1.88;;
55114;SDS011;41010;53.252;5.786;2022-10-16T07:32:45;7.97;;;1.70;;
55114;SDS011;41010;53.252;5.786;2022-10-16T07:35:12;9.30;;;1.73;;
55114;SDS011;41010;53.252;5.786;2022-10-16T07:37:39;9.50;;;1.95;;
55114;SDS011;41010;53.252;5.786;2022-10-16T07:40:10;9.00;;;2.20;;
55114;SDS011;41010;53.252;5.786;2022-10-16T07:42:38;10.57;;;2.30;;
55114;SDS011;41010;53.252;5.786;2022-10-16T07:45:05;7.32;;;1.90;;
55114;SDS011;41010;53.252;5.786;2022-10-16T07:47:34;10.15;;;2.00;;
55114;SDS011;41010;53.252;5.786;2022-10-16T07:50:02;5.85;;;1.73;;
55114;SDS011;41010;53.252;5.786;2022-10-16T07:52:29;5.82;;;1.92;;
55114;SDS011;41010;53.252;5.786;2022-10-16T07:54:56;5.43;;;2.20;;
55114;SDS011;41010;53.252;5.786;2022-10-16T07:57:23;9.95;;;2.35;;
55114;SDS011;41010;53.252;5.786;2022-10-16T07:59:50;9.18;;;2.28;;
55114;SDS011;41010;53.252;5.786;2022-10-16T08:02:18;9.73;;;2.22;;
55114;SDS011;41010;53.252;5.786;2022-10-16T08:04:47;7.10;;;2.13;;
55114;SDS011;41010;53.252;5.786;2022-10-16T08:07:15;15.75;;;2.42;;
55114;SDS011;41010;53.252;5.786;2022-10-16T08:09:42;9.82;;;2.30;;
55114;SDS011;41010;53.252;5.786;2022-10-16T08:12:09;13.02;;;2.47;;
55114;SDS011;41010;53.252;5.786;2022-10-16T08:14:37;8.93;;;2.83;;
55114;SDS011;41010;53.252;5.786;2022-10-16T08:17:04;7.78;;;1.80;;
55114;SDS011;41010;53.252;5.786;2022-10-16T08:19:31;8.27;;;2.17;;
55114;SDS011;41010;53.252;5.786;2022-10-16T08:22:01;11.40;;;2.13;;
55114;SDS011;41010;53.252;5.786;2022-10-16T08:24:28;8.85;;;1.77;;
55114;SDS011;41010;53.252;5.786;2022-10-16T08:26:57;6.70;;;1.73;;
55114;SDS011;41010;53.252;5.786;2022-10-16T08:29:24;8.35;;;2.10;;
55114;SDS011;41010;53.252;5.786;2022-10-16T08:31:52;7.65;;;1.60;;
55114;SDS011;41010;53.252;5.786;2022-10-16T08:34:19;7.43;;;1.75;;
55114;SDS011;41010;53.252;5.786;2022-10-16T08:36:46;7.47;;;1.60;;
55114;SDS011;41010;53.252;5.786;2022-10-16T08:39:15;9.50;;;2.38;;
55114;SDS011;41010;53.252;5.786;2022-10-16T08:44:41;12.65;;;2.10;;
55114;SDS011;41010;53.252;5.786;2022-10-16T08:47:13;9.70;;;1.98;;
55114;SDS011;41010;53.252;5.786;2022-10-16T08:49:43;12.48;;;1.70;;
55114;SDS011;41010;53.252;5.786;2022-10-16T08:52:12;10.07;;;1.73;;
55114;SDS011;41010;53.252;5.786;2022-10-16T08:54:42;16.73;;;2.40;;
55114;SDS011;41010;53.252;5.786;2022-10-16T08:57:11;12.32;;;1.95;;
55114;SDS011;41010;53.252;5.786;2022-10-16T08:59:38;14.10;;;2.30;;
55114;SDS011;41010;53.252;5.786;2022-10-16T09:02:13;14.57;;;2.20;;
55114;SDS011;41010;53.252;5.786;2022-10-16T09:04:49;11.27;;;2.67;;
55114;SDS011;41010;53.252;5.786;2022-10-16T09:07:20;11.93;;;1.98;;
55114;SDS011;41010;53.252;5.786;2022-10-16T09:10:02;17.77;;;2.10;;
55114;SDS011;41010;53.252;5.786;2022-10-16T09:12:32;8.02;;;1.60;;
55114;SDS011;41010;53.252;5.786;2022-10-16T09:15:06;12.05;;;1.83;;
55114;SDS011;41010;53.252;5.786;2022-10-16T09:17:39;18.77;;;2.28;;
55114;SDS011;41010;53.252;5.786;2022-10-16T09:20:14;15.07;;;1.95;;
55114;SDS011;41010;53.252;5.786;2022-10-16T09:22:43;17.25;;;2.17;;
55114;SDS011;41010;53.252;5.786;2022-10-16T09:25:13;13.32;;;2.00;;
55114;SDS011;41010;53.252;5.786;2022-10-16T09:27:40;14.32;;;2.55;;
55114;SDS011;41010;53.252;5.786;2022-10-16T09:30:12;15.10;;;1.90;;
55114;SDS011;41010;53.252;5.786;2022-10-16T09:32:40;18.13;;;2.22;;
55114;SDS011;41010;53.252;5.786;2022-10-16T09:35:11;17.27;;;2.78;;
55114;SDS011;41010;53.252;5.786;2022-10-16T09:37:40;17.42;;;2.42;;
55114;SDS011;41010;53.252;5.786;2022-10-16T09:40:13;30.20;;;2.75;;
55114;SDS011;41010;53.252;5.786;2022-10-16T09:42:40;15.50;;;1.92;;
55114;SDS011;41010;53.252;5.786;2022-10-16T09:45:19;13.45;;;2.20;;
55114;SDS011;41010;53.252;5.786;2022-10-16T09:47:46;18.15;;;2.10;;
55114;SDS011;41010;53.252;5.786;2022-10-16T09:50:19;16.83;;;2.50;;
55114;SDS011;41010;53.252;5.786;2022-10-16T09:52:48;13.65;;;2.75;;
55114;SDS011;41010;53.252;5.786;2022-10-16T09:55:17;20.20;;;2.95;;
55114;SDS011;41010;53.252;5.786;2022-10-16T09:57:50;18.80;;;2.90;;
55114;SDS011;41010;53.252;5.786;2022-10-16T10:00:17;18.05;;;4.05;;
55114;SDS011;41010;53.252;5.786;2022-10-16T10:02:45;20.55;;;2.88;;
55114;SDS011;41010;53.252;5.786;2022-10-16T10:05:17;23.20;;;2.65;;
55114;SDS011;41010;53.252;5.786;2022-10-16T10:07:46;15.40;;;2.75;;
55114;SDS011;41010;53.252;5.786;2022-10-16T10:10:20;19.77;;;2.83;;
55114;SDS011;41010;53.252;5.786;2022-10-16T10:12:48;18.15;;;2.55;;
55114;SDS011;41010;53.252;5.786;2022-10-16T10:15:15;17.17;;;2.60;;
55114;SDS011;41010;53.252;5.786;2022-10-16T10:17:46;16.73;;;2.20;;
55114;SDS011;41010;53.252;5.786;2022-10-16T10:20:18;20.77;;;3.15;;
55114;SDS011;41010;53.252;5.786;2022-10-16T10:22:48;14.10;;;2.40;;
55114;SDS011;41010;53.252;5.786;2022-10-16T10:25:21;14.65;;;2.25;;
55114;SDS011;41010;53.252;5.786;2022-10-16T10:27:53;18.20;;;2.58;;
55114;SDS011;41010;53.252;5.786;2022-10-16T10:30:24;16.23;;;2.65;;
55114;SDS011;41010;53.252;5.786;2022-10-16T10:32:56;15.20;;;2.60;;
55114;SDS011;41010;53.252;5.786;2022-10-16T10:35:31;18.63;;;2.75;;
55114;SDS011;41010;53.252;5.786;2022-10-16T10:38:06;16.20;;;2.85;;
55114;SDS011;41010;53.252;5.786;2022-10-16T10:40:43;17.25;;;2.63;;
55114;SDS011;41010;53.252;5.786;2022-10-16T10:43:15;16.77;;;2.60;;
55114;SDS011;41010;53.252;5.786;2022-10-16T10:45:44;18.35;;;2.65;;
55114;SDS011;41010;53.252;5.786;2022-10-16T10:48:17;19.77;;;2.58;;
55114;SDS011;41010;53.252;5.786;2022-10-16T10:53:18;23.52;;;3.20;;
55114;SDS011;41010;53.252;5.786;2022-10-16T10:55:52;20.02;;;2.85;;
55114;SDS011;41010;53.252;5.786;2022-10-16T10:58:27;17.77;;;2.38;;
55114;SDS011;41010;53.252;5.786;2022-10-16T11:01:01;13.52;;;1.88;;
55114;SDS011;41010;53.252;5.786;2022-10-16T11:03:33;17.75;;;2.40;;
55114;SDS011;41010;53.252;5.786;2022-10-16T11:06:02;13.18;;;2.45;;
55114;SDS011;41010;53.252;5.786;2022-10-16T11:08:33;18.10;;;2.08;;
55114;SDS011;41010;53.252;5.786;2022-10-16T11:11:04;20.80;;;2.42;;
55114;SDS011;41010;53.252;5.786;2022-10-16T11:13:33;18.42;;;2.53;;
55114;SDS011;41010;53.252;5.786;2022-10-16T11:16:07;19.55;;;2.17;;
55114;SDS011;41010;53.252;5.786;2022-10-16T11:18:41;15.90;;;2.80;;
55114;SDS011;41010;53.252;5.786;2022-10-16T11:21:10;20.58;;;3.17;;
55114;SDS011;41010;53.252;5.786;2022-10-16T11:23:40;23.48;;;2.53;;
55114;SDS011;41010;53.252;5.786;2022-10-16T11:26:11;18.27;;;2.72;;
55114;SDS011;41010;53.252;5.786;2022-10-16T11:28:42;17.33;;;2.58;;
55114;SDS011;41010;53.252;5.786;2022-10-16T11:31:11;17.65;;;2.28;;
55114;SDS011;41010;53.252;5.786;2022-10-16T11:33:41;17.77;;;2.85;;
55114;SDS011;41010;53.252;5.786;2022-10-16T11:36:11;16.27;;;2.17;;
55114;SDS011;41010;53.252;5.786;2022-10-16T11:38:41;16.65;;;2.60;;
55114;SDS011;41010;53.252;5.786;2022-10-16T11:41:12;15.50;;;2.38;;
55114;SDS011;41010;53.252;5.786;2022-10-16T11:43:43;14.82;;;2.20;;
55114;SDS011;41010;53.252;5.786;2022-10-16T11:46:13;13.60;;;2.15;;
55114;SDS011;41010;53.252;5.786;2022-10-16T11:48:43;15.40;;;2.25;;
55114;SDS011;41010;53.252;5.786;2022-10-16T11:51:14;16.15;;;2.20;;
55114;SDS011;41010;53.252;5.786;2022-10-16T11:53:45;11.63;;;1.98;;
55114;SDS011;41010;53.252;5.786;2022-10-16T11:56:15;16.33;;;2.22;;
55114;SDS011;41010;53.252;5.786;2022-10-16T11:58:47;17.13;;;2.60;;
55114;SDS011;41010;53.252;5.786;2022-10-16T12:01:17;12.82;;;2.17;;
55114;SDS011;41010;53.252;5.786;2022-10-16T12:03:46;14.35;;;2.33;;
55114;SDS011;41010;53.252;5.786;2022-10-16T12:06:27;17.70;;;2.50;;
55114;SDS011;41010;53.252;5.786;2022-10-16T12:08:57;10.20;;;1.90;;
55114;SDS011;41010;53.252;5.786;2022-10-16T12:11:32;19.92;;;3.17;;
55114;SDS011;41010;53.252;5.786;2022-10-16T12:14:04;23.75;;;3.97;;
55114;SDS011;41010;53.252;5.786;2022-10-16T12:16:32;15.90;;;2.38;;
55114;SDS011;41010;53.252;5.786;2022-10-16T12:19:07;12.27;;;2.40;;
55114;SDS011;41010;53.252;5.786;2022-10-16T12:21:37;17.15;;;2.47;;
55114;SDS011;41010;53.252;5.786;2022-10-16T12:24:04;14.55;;;1.70;;
55114;SDS011;41010;53.252;5.786;2022-10-16T12:26:34;14.85;;;2.53;;
55114;SDS011;41010;53.252;5.786;2022-10-16T12:29:12;14.23;;;2.20;;
55114;SDS011;41010;53.252;5.786;2022-10-16T12:31:43;15.18;;;2.50;;
55114;SDS011;41010;53.252;5.786;2022-10-16T12:34:14;19.58;;;2.20;;
55114;SDS011;41010;53.252;5.786;2022-10-16T12:36:45;17.80;;;2.58;;
55114;SDS011;41010;53.252;5.786;2022-10-16T12:39:16;14.52;;;2.42;;
55114;SDS011;41010;53.252;5.786;2022-10-16T12:41:48;14.10;;;1.83;;
55114;SDS011;41010;53.252;5.786;2022-10-16T12:44:27;16.13;;;2.75;;
55114;SDS011;41010;53.252;5.786;2022-10-16T12:46:58;10.77;;;1.70;;
55114;SDS011;41010;53.252;5.786;2022-10-16T12:49:30;13.13;;;2.22;;
55114;SDS011;41010;53.252;5.786;2022-10-16T12:51:57;10.73;;;2.08;;
55114;SDS011;41010;53.252;5.786;2022-10-16T12:54:27;22.75;;;2.42;;
55114;SDS011;41010;53.252;5.786;2022-10-16T12:57:02;17.67;;;2.10;;
55114;SDS011;41010;53.252;5.786;2022-10-16T12:59:35;15.52;;;2.47;;
55114;SDS011;41010;53.252;5.786;2022-10-16T13:04:50;21.23;;;2.83;;
55114;SDS011;41010;53.252;5.786;2022-10-16T13:07:30;14.88;;;2.95;;
55114;SDS011;41010;53.252;5.786;2022-10-16T13:10:02;14.02;;;3.03;;
55114;SDS011;41010;53.252;5.786;2022-10-16T13:12:45;10.85;;;1.85;;
55114;SDS011;41010;53.252;5.786;2022-10-16T13:18:02;13.18;;;2.22;;
55114;SDS011;41010;53.252;5.786;2022-10-16T13:20:33;11.30;;;1.77;;
55114;SDS011;41010;53.252;5.786;2022-10-16T13:23:04;16.92;;;2.50;;
55114;SDS011;41010;53.252;5.786;2022-10-16T13:25:38;12.98;;;2.30;;
55114;SDS011;41010;53.252;5.786;2022-10-16T13:28:09;14.48;;;2.67;;
55114;SDS011;41010;53.252;5.786;2022-10-16T13:30:39;17.15;;;2.58;;
55114;SDS011;41010;53.252;5.786;2022-10-16T13:33:10;13.60;;;2.72;;
55114;SDS011;41010;53.252;5.786;2022-10-16T13:35:46;14.15;;;2.42;;
55114;SDS011;41010;53.252;5.786;2022-10-16T13:38:15;16.02;;;2.20;;
55114;SDS011;41010;53.252;5.786;2022-10-16T13:40:49;11.40;;;2.10;;
55114;SDS011;41010;53.252;5.786;2022-10-16T13:43:18;10.55;;;2.50;;
55114;SDS011;41010;53.252;5.786;2022-10-16T13:45:53;13.75;;;2.15;;
55114;SDS011;41010;53.252;5.786;2022-10-16T13:48:21;13.95;;;2.45;;
55114;SDS011;41010;53.252;5.786;2022-10-16T13:50:58;14.23;;;2.30;;
55114;SDS011;41010;53.252;5.786;2022-10-16T13:53:25;14.13;;;2.42;;
55114;SDS011;41010;53.252;5.786;2022-10-16T13:55:52;10.95;;;2.20;;
55114;SDS011;41010;53.252;5.786;2022-10-16T13:58:21;11.50;;;2.05;;
55114;SDS011;41010;53.252;5.786;2022-10-16T14:00:55;10.65;;;2.20;;
55114;SDS011;41010;53.252;5.786;2022-10-16T14:03:23;12.82;;;1.92;;
55114;SDS011;41010;53.252;5.786;2022-10-16T14:05:52;14.95;;;2.47;;
55114;SDS011;41010;53.252;5.786;2022-10-16T14:08:19;16.05;;;2.35;;
55114;SDS011;41010;53.252;5.786;2022-10-16T14:10:50;12.07;;;1.90;;
55114;SDS011;41010;53.252;5.786;2022-10-16T14:13:19;15.52;;;2.42;;
55114;SDS011;41010;53.252;5.786;2022-10-16T14:15:49;12.43;;;2.72;;
55114;SDS011;41010;53.252;5.786;2022-10-16T14:18:17;12.40;;;2.60;;
55114;SDS011;41010;53.252;5.786;2022-10-16T14:20:45;12.23;;;2.17;;
55114;SDS011;41010;53.252;5.786;2022-10-16T14:23:20;14.10;;;2.28;;
55114;SDS011;41010;53.252;5.786;2022-10-16T14:25:48;16.58;;;2.25;;
55114;SDS011;41010;53.252;5.786;2022-10-16T14:28:16;16.65;;;2.60;;
55114;SDS011;41010;53.252;5.786;2022-10-16T14:30:52;12.48;;;2.40;;
55114;SDS011;41010;53.252;5.786;2022-10-16T14:33:23;13.70;;;1.90;;
55114;SDS011;41010;53.252;5.786;2022-10-16T14:36:01;13.38;;;1.70;;
55114;SDS011;41010;53.252;5.786;2022-10-16T14:38:29;15.63;;;2.83;;
55114;SDS011;41010;53.252;5.786;2022-10-16T14:40:57;9.30;;;1.77;;
55114;SDS011;41010;53.252;5.786;2022-10-16T14:43:27;19.73;;;2.83;;
55114;SDS011;41010;53.252;5.786;2022-10-16T14:45:56;16.65;;;1.80;;
55114;SDS011;41010;53.252;5.786;2022-10-16T14:48:24;21.65;;;2.50;;
55114;SDS011;41010;53.252;5.786;2022-10-16T14:50:51;11.23;;;2.40;;
55114;SDS011;41010;53.252;5.786;2022-10-16T14:53:18;11.15;;;1.70;;
55114;SDS011;41010;53.252;5.786;2022-10-16T14:55:45;13.27;;;2.25;;
55114;SDS011;41010;53.252;5.786;2022-10-16T14:58:13;11.85;;;2.00;;
55114;SDS011;41010;53.252;5.786;2022-10-16T15:00:42;11.68;;;2.13;;
55114;SDS011;41010;53.252;5.786;2022-10-16T15:03:10;15.30;;;1.98;;
55114;SDS011;41010;53.252;5.786;2022-10-16T15:05:38;17.45;;;2.20;;